< < Back
Terminal Aerodrome Forecast


Current Version              Previous Versions:   1  2  3  4  5  6  7  8  9  

Terminal Aerodrome Forecast

258
FTUS42 KJAX 131120
TAFSSI
TAF
KSSI 131120Z 1312/1412 33006KT P6SM SKC
     FM131400 35010G18KT P6SM SKC
     FM131900 03008KT P6SM SKC
     FM140000 03004KT P6SM SKC=



Latest METAR

006
SAUS70 KWBC 131700 RRX
MTRSSI
METAR KSSI 132053Z AUTO 08007KT 10SM CLR 10/01 A3025 RMK AO2 SLP245
T01000006 56005 $


USA.gov is the U.S. government's official web portal to all federal, state and local government web resources and services.